createdAt,value
2019-01-23T00:02:03.235Z,100170.47
2019-01-23T00:04:33.550Z,100169.25
2019-01-23T00:07:03.962Z,100168.02
2019-01-23T00:09:37.382Z,100159.01
2019-01-23T00:12:07.882Z,100161.16
2019-01-23T00:14:38.193Z,100156.43
2019-01-23T00:17:08.636Z,100160.23
2019-01-23T00:19:40.539Z,100153.28
2019-01-23T00:22:12.782Z,100150.64
2019-01-23T00:24:44.805Z,100147.11
2019-01-23T00:27:15.328Z,100146.19
2019-01-23T00:29:45.600Z,100148.25
2019-01-23T00:32:16.038Z,100138.69
2019-01-23T00:34:46.348Z,100143.33
2019-01-23T00:37:16.752Z,100134.64
2019-01-23T00:39:47.167Z,100142.81
2019-01-23T00:42:17.581Z,100138.16
2019-01-23T00:44:50.768Z,100133.80
2019-01-23T00:47:21.139Z,100132.52
2019-01-23T00:49:51.509Z,100132.88
2019-01-23T00:52:21.924Z,100137.09
2019-01-23T00:54:52.401Z,100133.23
2019-01-23T00:57:22.877Z,100131.08
2019-01-23T00:59:53.289Z,100133.72
2019-01-23T01:02:23.665Z,100132.84
2019-01-23T01:04:54.023Z,100140.16
2019-01-23T01:07:24.442Z,100130.66
2019-01-23T01:09:54.871Z,100136.23
2019-01-23T01:12:26.937Z,100136.73
2019-01-23T01:14:57.231Z,100135.81
2019-01-23T01:17:29.348Z,100135.36
2019-01-23T01:19:59.692Z,100132.30
2019-01-23T01:22:30.209Z,100139.64
2019-01-23T01:25:02.654Z,100137.88
2019-01-23T01:27:34.196Z,100137.36
2019-01-23T01:30:06.133Z,100139.00
2019-01-23T01:32:39.512Z,100135.05
2019-01-23T01:35:10.243Z,100137.49
2019-01-23T01:37:43.500Z,100133.60
2019-01-23T01:40:19.306Z,100132.19
2019-01-23T01:42:52.634Z,100133.80
2019-01-23T01:45:23.127Z,100131.84
2019-01-23T01:47:53.595Z,100131.26
2019-01-23T01:50:24.068Z,100122.96
2019-01-23T01:52:54.583Z,100130.58
2019-01-23T01:55:24.948Z,100132.67
2019-01-23T01:58:00.660Z,100129.48
2019-01-23T02:00:34.718Z,100131.99
2019-01-23T02:03:05.132Z,100131.89
2019-01-23T02:05:35.566Z,100121.47
2019-01-23T02:08:07.460Z,100124.88
2019-01-23T02:10:38.087Z,100120.52
2019-01-23T02:13:08.789Z,100115.78
2019-01-23T02:15:39.327Z,100117.77
2019-01-23T02:18:12.779Z,100115.66
2019-01-23T02:20:43.331Z,100113.08
2019-01-23T02:23:13.786Z,100113.56
2019-01-23T02:25:44.312Z,100108.42
2019-01-23T02:28:14.729Z,100109.22
2019-01-23T02:30:48.319Z,100108.80
2019-01-23T02:33:21.803Z,100108.77
2019-01-23T02:35:52.355Z,100110.24
2019-01-23T02:38:22.841Z,100105.91
2019-01-23T02:40:53.420Z,100102.47
2019-01-23T02:43:23.916Z,100107.19
2019-01-23T02:45:54.334Z,100109.38
2019-01-23T02:48:24.778Z,100106.84
2019-01-23T02:50:57.608Z,100103.50
2019-01-23T02:53:27.961Z,100109.22
2019-01-23T02:56:01.182Z,100112.31
2019-01-23T02:58:31.721Z,100106.46
2019-01-23T03:01:02.068Z,100104.05
2019-01-23T03:16:38.772Z,100105.52
2019-01-23T03:19:13.616Z,100105.37
2019-01-23T03:21:44.075Z,100106.24
2019-01-23T03:24:14.379Z,100098.70
2019-01-23T03:26:44.681Z,100098.94
2019-01-23T03:29:14.993Z,100093.28
2019-01-23T03:31:45.317Z,100101.27
2019-01-23T03:34:17.361Z,100105.48
2019-01-23T03:36:49.003Z,100096.84
2019-01-23T03:39:19.376Z,100090.67
2019-01-23T03:41:49.716Z,100091.95
2019-01-23T03:44:20.139Z,100087.25
2019-01-23T03:46:50.789Z,100090.22
2019-01-23T03:49:21.205Z,100093.16
2019-01-23T03:51:51.740Z,100088.72
2019-01-23T03:54:32.778Z,100091.30
2019-01-23T03:57:03.504Z,100089.52
2019-01-23T03:59:33.915Z,100095.16
2019-01-23T04:02:04.410Z,100096.44
2019-01-23T04:04:34.832Z,100096.02
2019-01-23T04:07:05.336Z,100096.89
2019-01-23T04:09:39.630Z,100098.17
2019-01-23T04:12:11.641Z,100106.77
2019-01-23T04:14:41.915Z,100108.47
2019-01-23T04:17:12.484Z,100111.88
2019-01-23T04:19:42.859Z,100115.33
2019-01-23T04:22:13.275Z,100120.89
2019-01-23T04:24:43.714Z,100118.47
2019-01-23T04:27:15.564Z,100115.03
2019-01-23T04:29:45.950Z,100121.14
2019-01-23T04:32:16.295Z,100116.50
2019-01-23T04:34:47.735Z,100119.56
2019-01-23T04:37:18.054Z,100117.91
2019-01-23T04:39:48.501Z,100117.84
2019-01-23T04:42:18.818Z,100124.22
2019-01-23T04:44:50.899Z,100128.66
2019-01-23T04:47:21.361Z,100121.86
2019-01-23T04:49:52.867Z,100121.45
2019-01-23T04:52:40.993Z,100121.09
2019-01-23T04:55:11.521Z,100121.06
2019-01-23T04:57:41.827Z,100120.16
2019-01-23T05:00:14.115Z,100129.68
2019-01-23T05:02:44.496Z,100128.81
2019-01-23T05:05:14.760Z,100132.37
2019-01-23T05:07:46.357Z,100135.41
2019-01-23T05:10:19.959Z,100132.80
2019-01-23T05:12:50.378Z,100134.59
2019-01-23T05:15:23.092Z,100137.17
2019-01-23T05:17:54.926Z,100135.53
2019-01-23T05:20:25.307Z,100135.98
2019-01-23T05:22:55.676Z,100136.42
2019-01-23T05:25:41.458Z,100139.48
2019-01-23T05:28:11.898Z,100136.91
2019-01-23T05:30:48.201Z,100141.13
2019-01-23T05:33:18.506Z,100137.35
2019-01-23T05:35:51.253Z,100136.91
2019-01-23T05:38:21.835Z,100149.42
2019-01-23T05:40:54.563Z,100145.56
2019-01-23T05:45:32.939Z,100143.41
2019-01-23T05:47:38.626Z,100139.06
2019-01-23T05:53:24.253Z,100141.55
2019-01-23T05:56:03.276Z,100148.84
2019-01-23T05:59:15.879Z,100147.56
2019-01-23T06:01:46.451Z,100148.94
2019-01-23T06:04:19.660Z,100154.58
2019-01-23T06:06:50.289Z,100158.11
2019-01-23T06:09:26.421Z,100157.36
2019-01-23T06:12:00.089Z,100159.09
2019-01-23T06:14:30.981Z,100157.36
2019-01-23T06:17:01.689Z,100163.80
2019-01-23T06:19:45.056Z,100165.95
2019-01-23T06:22:07.502Z,100162.13
2019-01-23T06:24:42.614Z,100163.47
2019-01-23T06:27:13.220Z,100170.75
2019-01-23T06:29:46.867Z,100172.06
2019-01-23T06:32:25.026Z,100168.63
2019-01-23T06:35:01.444Z,100174.28
2019-01-23T06:37:31.628Z,100182.37
2019-01-23T06:41:05.042Z,100180.78
2019-01-23T06:43:50.153Z,100179.50
2019-01-23T06:47:16.296Z,100182.85
2019-01-23T06:54:06.086Z,100191.03
2019-01-23T06:57:16.444Z,100189.29
2019-01-23T06:59:58.753Z,100191.73
2019-01-23T07:02:30.966Z,100190.84
2019-01-23T07:05:13.527Z,100191.30
2019-01-23T07:07:53.606Z,100193.93
2019-01-23T07:10:30.268Z,100197.79
2019-01-23T07:13:02.967Z,100208.03
2019-01-23T07:15:44.313Z,100206.39
2019-01-23T07:18:17.206Z,100208.19
2019-01-23T07:20:49.958Z,100206.39
2019-01-23T07:23:21.958Z,100208.96
2019-01-23T07:25:52.370Z,100206.68
2019-01-23T07:28:25.374Z,100211.89
2019-01-23T07:30:57.010Z,100210.61
2019-01-23T07:33:27.601Z,100215.82
2019-01-23T07:35:58.130Z,100216.20
2019-01-23T07:38:28.557Z,100213.60
2019-01-23T07:41:16.552Z,100223.06
2019-01-23T07:43:57.200Z,100220.91
2019-01-23T07:46:40.544Z,100226.00
2019-01-23T07:49:13.198Z,100229.47
2019-01-23T07:52:10.802Z,100235.49
2019-01-23T07:54:41.317Z,100232.56
2019-01-23T07:57:44.336Z,100235.17
2019-01-23T08:00:44.801Z,100243.44
2019-01-23T08:03:18.197Z,100239.96
2019-01-23T08:05:48.860Z,100239.09
2019-01-23T08:08:20.536Z,100239.03
2019-01-23T08:11:00.827Z,100243.64
2019-01-23T08:13:47.268Z,100247.11
2019-01-23T08:16:32.927Z,100252.33
2019-01-23T08:19:25.029Z,100250.69
2019-01-23T08:21:51.179Z,100252.12
2019-01-23T08:24:21.689Z,100253.13
2019-01-23T08:26:57.824Z,100252.77
2019-01-23T08:32:41.225Z,100260.66
2019-01-23T08:35:32.878Z,100253.86
2019-01-23T08:39:04.754Z,100260.48
2019-01-23T08:41:37.888Z,100257.67
2019-01-23T08:44:11.165Z,100259.50
2019-01-23T08:46:41.689Z,100259.98
2019-01-23T08:50:22.136Z,100264.00
2019-01-23T08:53:03.290Z,100264.96
2019-01-23T08:55:42.853Z,100275.27
2019-01-23T08:58:26.069Z,100276.27
2019-01-23T09:01:32.114Z,100273.33
2019-01-23T09:04:28.593Z,100273.05
2019-01-23T09:07:08.934Z,100267.39
2019-01-23T09:09:54.252Z,100272.87
2019-01-23T09:12:28.567Z,100278.80
2019-01-23T09:18:49.784Z,100276.14
2019-01-23T09:21:33.454Z,100281.30
2019-01-23T09:24:22.908Z,100286.38
2019-01-23T09:26:59.451Z,100290.78
2019-01-23T09:29:38.880Z,100297.48
2019-01-23T09:33:14.526Z,100299.84
2019-01-23T09:36:13.009Z,100298.64
2019-01-23T09:39:45.958Z,100299.93
2019-01-23T09:43:09.640Z,100302.71
2019-01-23T09:46:40.805Z,100312.33
2019-01-23T09:50:04.720Z,100312.59
2019-01-23T09:53:36.434Z,100308.80
2019-01-23T09:56:29.724Z,100321.92
2019-01-23T10:12:33.985Z,100332.52
2019-01-23T10:15:14.003Z,100330.97
2019-01-23T10:17:51.094Z,100333.67
2019-01-23T10:20:26.352Z,100336.36
2019-01-23T10:23:30.503Z,100339.68
2019-01-23T10:26:30.190Z,100338.76
2019-01-23T10:29:13.896Z,100340.92
2019-01-23T10:31:47.438Z,100341.78
2019-01-23T10:34:21.052Z,100340.98
2019-01-23T10:37:02.406Z,100340.61
2019-01-23T10:39:37.081Z,100334.96
2019-01-23T10:42:22.138Z,100336.17
2019-01-23T10:45:01.078Z,100338.76
2019-01-23T10:47:46.884Z,100341.84
2019-01-23T10:50:20.766Z,100355.69
2019-01-23T10:54:15.265Z,100355.26
2019-01-23T10:56:25.077Z,100352.75
2019-01-23T10:59:05.201Z,100355.81
2019-01-23T11:01:40.730Z,100350.41
2019-01-23T11:04:58.847Z,100351.91
2019-01-23T11:07:33.290Z,100350.43
2019-01-23T11:10:40.906Z,100345.02
2019-01-23T11:13:13.772Z,100353.84
2019-01-23T11:15:49.875Z,100351.31
2019-01-23T11:18:31.510Z,100347.98
2019-01-23T11:21:02.050Z,100353.16
2019-01-23T11:23:36.877Z,100350.64
2019-01-23T11:26:10.604Z,100350.37
2019-01-23T11:28:44.951Z,100355.23
2019-01-23T11:31:29.765Z,100353.59
2019-01-23T11:34:14.124Z,100352.70
2019-01-23T11:36:46.345Z,100353.64
2019-01-23T11:39:19.806Z,100354.42
2019-01-23T11:41:50.265Z,100355.14
2019-01-23T11:44:20.737Z,100362.76
2019-01-23T11:46:53.326Z,100361.16
2019-01-23T11:49:25.735Z,100362.52
2019-01-23T11:51:57.552Z,100361.70
2019-01-23T11:54:28.245Z,100366.49
2019-01-23T11:56:58.528Z,100367.31
2019-01-23T11:59:30.103Z,100368.16
2019-01-23T12:02:06.763Z,100363.27
2019-01-23T12:04:38.573Z,100365.91
2019-01-23T12:07:12.861Z,100367.69
2019-01-23T12:09:43.925Z,100370.39
2019-01-23T12:12:17.011Z,100368.72
2019-01-23T12:14:47.517Z,100364.41
2019-01-23T12:17:24.792Z,100367.84
2019-01-23T12:20:00.017Z,100366.77
2019-01-23T12:22:38.317Z,100364.44
2019-01-23T12:25:12.556Z,100363.15
2019-01-23T12:27:48.367Z,100366.16
2019-01-23T12:30:26.369Z,100368.58
2019-01-23T12:32:56.956Z,100372.70
2019-01-23T12:35:32.408Z,100375.87
2019-01-23T12:38:02.807Z,100377.77
2019-01-23T12:40:33.094Z,100374.08
2019-01-23T12:43:03.604Z,100384.23
2019-01-23T12:45:33.999Z,100374.20
2019-01-23T12:48:04.562Z,100383.13
2019-01-23T12:50:42.498Z,100389.16
2019-01-23T12:54:11.854Z,100383.25
2019-01-23T12:57:27.864Z,100388.97
2019-01-23T13:00:05.395Z,100384.30
2019-01-23T13:05:26.468Z,100361.45
2019-01-23T13:08:45.573Z,100386.96
2019-01-23T13:11:32.053Z,100392.48
2019-01-23T13:14:33.994Z,100395.36
2019-01-23T13:17:13.783Z,100398.69
2019-01-23T13:19:44.548Z,100391.62
2019-01-23T13:22:39.331Z,100391.62
2019-01-23T13:26:16.793Z,100397.63
2019-01-23T13:29:17.118Z,100397.58
2019-01-23T13:32:01.892Z,100394.55
2019-01-23T13:35:04.090Z,100400.09
2019-01-23T13:37:39.821Z,100399.19
2019-01-23T13:40:37.524Z,100403.97
2019-01-23T13:43:07.020Z,100404.05
2019-01-23T13:45:37.832Z,100401.45
2019-01-23T13:48:10.186Z,100408.79
2019-01-23T13:50:42.900Z,100401.53
2019-01-23T13:53:24.648Z,100407.55
2019-01-23T13:56:09.648Z,100406.68
2019-01-23T13:58:45.664Z,100417.34
2019-01-23T14:01:16.247Z,100416.70
2019-01-23T14:03:47.757Z,100422.61
2019-01-23T14:06:18.089Z,100425.53
2019-01-23T14:08:51.631Z,100419.83
2019-01-23T14:11:22.080Z,100417.36
2019-01-23T14:13:52.470Z,100425.00
2019-01-23T14:16:22.897Z,100413.29
2019-01-23T14:18:53.556Z,100420.84
2019-01-23T14:21:23.948Z,100417.98
2019-01-23T14:23:54.494Z,100426.22
2019-01-23T14:26:24.763Z,100431.95
2019-01-23T14:28:56.828Z,100430.88
2019-01-23T14:31:27.179Z,100431.38
2019-01-23T14:33:59.143Z,100439.20
2019-01-23T14:36:29.721Z,100436.26
2019-01-23T14:39:01.663Z,100436.38
2019-01-23T14:41:34.843Z,100439.52
2019-01-23T14:44:05.731Z,100441.70
2019-01-23T14:46:39.151Z,100442.18
2019-01-23T14:49:09.837Z,100447.27
2019-01-23T14:51:44.636Z,100455.78
2019-01-23T14:54:15.237Z,100450.47
2019-01-23T14:56:47.625Z,100461.59
2019-01-23T14:59:20.724Z,100461.17
2019-01-23T15:01:53.690Z,100460.16
2019-01-23T15:04:26.656Z,100465.70
2019-01-23T15:06:58.491Z,100467.69
2019-01-23T15:09:28.712Z,100461.88
2019-01-23T15:11:59.076Z,100470.77
2019-01-23T15:14:29.491Z,100445.19
2019-01-23T15:16:59.832Z,100476.38
2019-01-23T15:19:30.201Z,100480.41
2019-01-23T15:22:00.617Z,100490.01
2019-01-23T15:24:32.706Z,100492.92
2019-01-23T15:27:03.229Z,100495.80
2019-01-23T15:29:34.947Z,100501.65
2019-01-23T15:32:08.386Z,100507.05
2019-01-23T15:34:38.780Z,100509.44
2019-01-23T15:37:10.232Z,100525.92
2019-01-23T15:39:40.706Z,100526.61
2019-01-23T15:42:11.047Z,100528.52
2019-01-23T15:44:41.269Z,100532.95
2019-01-23T15:47:11.792Z,100536.05
2019-01-23T15:49:44.134Z,100540.16
2019-01-23T15:52:14.551Z,100544.25
2019-01-23T15:54:47.943Z,100545.34
2019-01-23T15:57:18.242Z,100542.94
2019-01-23T15:59:48.482Z,100556.01
2019-01-23T16:02:24.288Z,100554.94
2019-01-23T16:04:53.680Z,100553.44
2019-01-23T16:07:24.077Z,100559.04
2019-01-23T16:09:57.220Z,100562.44
2019-01-23T16:12:28.912Z,100568.22
2019-01-23T16:14:59.435Z,100570.16
2019-01-23T16:17:29.822Z,100573.84
2019-01-23T16:20:00.208Z,100576.23
2019-01-23T16:22:33.475Z,100578.31
2019-01-23T16:25:06.558Z,100580.36
2019-01-23T16:27:47.349Z,100579.34
2019-01-23T16:30:42.656Z,100585.25
2019-01-23T16:33:12.879Z,100584.61
2019-01-23T16:35:43.345Z,100588.86
2019-01-23T16:38:16.590Z,100600.59
2019-01-23T16:40:46.973Z,100602.44
2019-01-23T16:43:19.558Z,100604.74
2019-01-23T16:45:50.995Z,100608.82
2019-01-23T16:48:21.296Z,100616.27
2019-01-23T16:50:51.652Z,100620.55
2019-01-23T16:53:22.073Z,100628.19
2019-01-23T16:55:52.260Z,100627.36
2019-01-23T16:58:41.997Z,100633.25
2019-01-23T17:01:12.254Z,100638.20
2019-01-23T17:03:42.695Z,100644.97
2019-01-23T17:06:13.042Z,100644.23
2019-01-23T17:08:43.344Z,100647.96
2019-01-23T17:11:13.620Z,100655.52
2019-01-23T17:13:43.927Z,100656.60
2019-01-23T17:16:14.224Z,100658.97
2019-01-23T17:18:44.433Z,100659.17
2019-01-23T17:21:14.752Z,100659.30
2019-01-23T17:23:45.220Z,100654.56
2019-01-23T17:26:15.812Z,100664.47
2019-01-23T17:28:46.663Z,100662.42
2019-01-23T17:31:33.743Z,100669.84
2019-01-23T17:34:04.494Z,100666.52
2019-01-23T17:36:35.011Z,100664.14
2019-01-23T17:39:09.649Z,100669.14
2019-01-23T17:41:40.189Z,100671.08
2019-01-23T17:44:11.007Z,100673.56
2019-01-23T17:46:41.736Z,100685.59
2019-01-23T17:49:12.254Z,100692.09
2019-01-23T17:51:42.787Z,100694.66
2019-01-23T17:54:12.984Z,100698.61
2019-01-23T17:56:43.336Z,100704.20
2019-01-23T17:59:13.762Z,100697.23
2019-01-23T18:01:44.019Z,100701.91
2019-01-23T18:04:14.328Z,100708.48
2019-01-23T18:06:44.615Z,100704.05
2019-01-23T18:09:14.922Z,100708.09
2019-01-23T18:11:45.217Z,100709.02
2019-01-23T18:14:15.551Z,100715.80
2019-01-23T18:16:45.745Z,100706.97
2019-01-23T18:19:16.066Z,100713.41
2019-01-23T18:21:46.392Z,100707.87
2019-01-23T18:24:16.835Z,100713.47
2019-01-23T18:26:47.187Z,100720.88
2019-01-23T18:29:17.544Z,100716.30
2019-01-23T18:31:56.521Z,100720.26
2019-01-23T18:35:32.017Z,100718.72
2019-01-23T18:38:34.034Z,100721.86
2019-01-23T18:42:01.406Z,100730.19
2019-01-23T18:45:11.595Z,100731.16
2019-01-23T18:48:25.731Z,100749.66
2019-01-23T18:51:44.918Z,100745.85
2019-01-23T18:54:15.196Z,100743.53
2019-01-23T18:56:45.633Z,100745.55
2019-01-23T18:59:16.018Z,100745.67
2019-01-23T19:01:46.370Z,100750.12
2019-01-23T19:04:16.730Z,100741.30
2019-01-23T19:06:47.104Z,100747.98
2019-01-23T19:09:17.357Z,100748.99
2019-01-23T19:11:47.682Z,100749.59
2019-01-23T19:14:24.267Z,100748.72
2019-01-23T19:16:50.029Z,100754.60
2019-01-23T19:19:20.360Z,100756.11
2019-01-23T19:21:55.077Z,100768.09
2019-01-23T19:24:22.661Z,100763.78
2019-01-23T19:26:53.019Z,100768.97
2019-01-23T19:29:23.408Z,100770.75
2019-01-23T19:31:55.517Z,100768.67
2019-01-23T19:34:26.079Z,100761.91
2019-01-23T19:36:56.362Z,100766.79
2019-01-23T19:39:26.968Z,100769.86
2019-01-23T19:41:57.663Z,100766.02
2019-01-23T19:44:28.290Z,100765.04
2019-01-23T19:46:58.658Z,100763.25
2019-01-23T19:49:29.246Z,100762.27
2019-01-23T19:51:59.762Z,100768.77
2019-01-23T19:54:30.520Z,100772.14
2019-01-23T19:57:04.644Z,100778.90
2019-01-23T19:59:35.285Z,100773.41
2019-01-23T20:02:05.845Z,100776.64
2019-01-23T20:04:36.354Z,100781.28
2019-01-23T20:07:07.265Z,100782.68
2019-01-23T20:09:37.728Z,100788.27
2019-01-23T20:12:08.541Z,100794.19
2019-01-23T20:14:40.771Z,100789.08
2019-01-23T20:17:11.515Z,100788.09
2019-01-23T20:19:42.068Z,100788.39
2019-01-23T20:22:12.838Z,100793.33
2019-01-23T20:24:43.438Z,100791.15
2019-01-23T20:27:13.980Z,100796.56
2019-01-23T20:29:44.509Z,100792.07
2019-01-23T20:32:15.034Z,100795.22
2019-01-23T20:34:45.672Z,100802.20
2019-01-23T20:37:16.297Z,100807.42
2019-01-23T20:39:46.859Z,100809.10
2019-01-23T20:42:17.410Z,100808.59
2019-01-23T20:44:48.013Z,100805.64
2019-01-23T20:47:18.715Z,100811.66
2019-01-23T20:49:50.433Z,100806.62
2019-01-23T20:52:21.032Z,100816.84
2019-01-23T20:54:51.972Z,100818.81
2019-01-23T20:57:24.328Z,100823.16
2019-01-23T20:59:54.871Z,100828.34
2019-01-23T21:02:25.466Z,100828.27
2019-01-23T21:04:56.104Z,100830.60
2019-01-23T21:07:26.754Z,100830.42
2019-01-23T21:10:00.248Z,100834.55
2019-01-23T21:12:30.726Z,100833.27
2019-01-23T21:15:01.211Z,100830.31
2019-01-23T21:17:31.683Z,100845.64
2019-01-23T21:20:02.327Z,100849.10
2019-01-23T21:22:32.900Z,100850.15
2019-01-23T21:25:03.449Z,100846.30
2019-01-23T21:27:34.068Z,100847.66
2019-01-23T21:30:05.431Z,100851.16
2019-01-23T21:32:35.778Z,100861.16
2019-01-23T21:35:06.512Z,100860.94
2019-01-23T21:37:36.769Z,100865.22
2019-01-23T21:40:12.910Z,100863.75
2019-01-23T21:42:43.158Z,100867.18
2019-01-23T21:45:13.985Z,100869.25
2019-01-23T21:47:44.393Z,100874.20
2019-01-23T21:50:17.932Z,100877.48
2019-01-23T21:52:48.284Z,100883.52
2019-01-23T21:55:21.158Z,100885.70
2019-01-23T21:57:51.981Z,100888.57
2019-01-23T22:00:32.422Z,100890.92
2019-01-23T22:03:02.996Z,100890.28
2019-01-23T22:05:33.330Z,100891.86
2019-01-23T22:08:03.738Z,100883.50
2019-01-23T22:10:34.176Z,100883.88
2019-01-23T22:13:04.587Z,100888.58
2019-01-23T22:15:35.035Z,100895.48
2019-01-23T22:18:07.486Z,100900.99
2019-01-23T22:20:37.810Z,100898.72
2019-01-23T22:23:08.113Z,100898.79
2019-01-23T22:25:38.529Z,100905.28
2019-01-23T22:28:09.132Z,100896.43
2019-01-23T22:30:39.434Z,100893.75
2019-01-23T22:33:09.708Z,100904.84
2019-01-23T22:35:39.959Z,100898.84
2019-01-23T22:38:10.291Z,100905.69
2019-01-23T22:40:40.552Z,100902.53
2019-01-23T22:43:15.008Z,100899.75
2019-01-23T22:45:42.819Z,100894.44
2019-01-23T22:48:13.017Z,100904.84
2019-01-23T22:50:43.238Z,100913.61
2019-01-23T22:53:13.539Z,100920.19
2019-01-23T22:55:43.780Z,100920.39
2019-01-23T22:58:14.034Z,100919.69
2019-01-23T23:01:10.745Z,100930.31
2019-01-23T23:03:41.004Z,100931.46
2019-01-23T23:06:11.348Z,100937.86
2019-01-23T23:08:41.628Z,100945.02
2019-01-23T23:11:11.984Z,100940.16
2019-01-23T23:13:42.250Z,100933.16
2019-01-23T23:16:12.509Z,100938.08
2019-01-23T23:18:49.846Z,100941.69
2019-01-23T23:21:20.121Z,100938.52
2019-01-23T23:23:50.378Z,100948.47
2019-01-23T23:26:20.826Z,100948.57
2019-01-23T23:28:51.140Z,100952.59
2019-01-23T23:31:21.295Z,100954.84
2019-01-23T23:33:51.524Z,100955.92
2019-01-23T23:36:21.626Z,100964.25
2019-01-23T23:38:51.853Z,100970.56
2019-01-23T23:41:22.205Z,100973.19
2019-01-23T23:43:52.448Z,100975.75
2019-01-23T23:46:25.506Z,100987.19
2019-01-23T23:48:55.694Z,100981.45
2019-01-23T23:51:25.977Z,100987.76
2019-01-23T23:53:56.195Z,100986.17
2019-01-23T23:56:26.414Z,100993.63
2019-01-23T23:58:56.637Z,100993.42
